Bf Esperanza — V2BR8 — position and weather

sailwx.info

Track history (hours):
 
Tides and Currents Weather Stations Pressure Air Temp Water Temp Dewpoint Dewpoint Depression Visibility Wind Speed Wind Dir Waves Ship Positions

Bf Esperanza

Last reported at 2017-Feb-23 18:32 UTC. Time now 2017-Feb-23 18:54 UTC.
Position N 53°36' E 008°31'.

Length 135 m; draft 7.1 m.

Type: Cargo ship. MMSI: 304907000.

Date/timePositionNaut miles runAvg speedWind from/ knotsBaromVisibWave heightAir tempDewpointWater temp
2017-Feb-23 18:32N 53°36' E 008°31'0 0.0
2017-Feb-23 17:31N 53°36' E 008°31'0 0.0
2017-Feb-23 16:31N 53°36' E 008°31'0 0.0
2017-Feb-23 15:33N 53°36' E 008°31'0 0.0
2017-Feb-23 14:33N 53°36' E 008°31'6 5.8
2017-Feb-23 13:33N 53°40' E 008°23'1212.4
2017-Feb-23 12:33N 53°48' E 008°08'1413.8
2017-Feb-23 11:33N 53°53' E 007°46'95 8.5
2017-Feb-23 00:25N 53°59' E 005°05'42 8.0
2017-Feb-22 19:05N 53°19' E 004°39'5 7.9
2017-Feb-22 18:24N 53°14' E 004°35'7 8.3
2017-Feb-22 17:33N 53°08' E 004°29'9 8.8
2017-Feb-22 16:33N 53°00' E 004°23'9 9.2
2017-Feb-22 15:34N 52°52' E 004°16'10 9.6
2017-Feb-22 14:34N 52°44' E 004°07'10 9.8
2017-Feb-22 13:34N 52°38' E 003°55'8310.2
2017-Feb-22 05:22N 51°36' E 002°24'7 8.4
2017-Feb-22 04:33N 51°31' E 002°17'9 8.9
2017-Feb-22 03:33N 51°24' E 002°08'8 8.4
2017-Feb-22 02:33N 51°15' E 002°06'9 9.4
2017-Feb-22 01:33N 51°10' E 001°54'10 9.8
2017-Feb-22 00:33N 51°04' E 001°42'1010.1
2017-Feb-21 23:33N 50°56' E 001°31'68 9.4
2017-Feb-21 16:21N 50°18' E 000°03'910.8
2017-Feb-21 15:33N 50°16' W 000°10'2310.5
2017-Feb-21 13:23N 50°10' W 000°44'12 9.6
2017-Feb-21 12:07N 50°07' W 001°03'5 9.0
2017-Feb-21 11:33N 50°06' W 001°10'9 8.7
2017-Feb-21 10:33N 50°04' W 001°24'8 8.3
2017-Feb-21 09:33N 50°02' W 001°36'8 8.5
2017-Feb-21 08:34N 49°59' W 001°49'13810.2
2017-Feb-20 19:03N 48°59' W 004°60'5 9.4
2017-Feb-20 18:33N 48°57' W 005°06'9 9.4
2017-Feb-20 17:33N 48°52' W 005°18'1010.0
2017-Feb-20 16:33N 48°47' W 005°32'59413.5
2017-Feb-18 20:28N 39°23' W 009°50'1414.7
2017-Feb-18 19:33N 39°09' W 009°50'1514.5
2017-Feb-18 18:33N 38°55' W 009°50'1514.5
2017-Feb-18 17:33N 38°40' W 009°49'1414.3
2017-Feb-18 16:33N 38°27' W 009°44'1414.3
2017-Feb-18 15:33N 38°13' W 009°41'1414.5
2017-Feb-18 14:33N 37°58' W 009°37'1514.4
2017-Feb-18 13:30N 37°44' W 009°33'20314.3
2017-Feb-17 23:14N 35°58' W 005°55'1115.6
2017-Feb-17 22:33N 35°58' W 005°42'1515.3
2017-Feb-17 21:33N 36°01' W 005°24'1616.1
2017-Feb-17 20:33N 36°08' W 005°06'6 0.2
2017-Feb-16 19:33N 36°08' W 005°13'8 8.3
2017-Feb-16 18:34N 36°08' W 005°24'2 2.4
2017-Feb-16 17:32N 36°10' W 005°24'0 0.0
2017-Feb-16 16:32N 36°10' W 005°24'0 0.0
2017-Feb-16 15:32N 36°10' W 005°24'0 0.0
2017-Feb-16 14:28N 36°10' W 005°24'0 0.0
2017-Feb-16 13:31N 36°10' W 005°24'0 0.0
2017-Feb-16 12:33N 36°10' W 005°24'0 0.0
2017-Feb-16 11:33N 36°10' W 005°24'0 0.0
2017-Feb-16 10:32N 36°10' W 005°24'0 0.0
2017-Feb-16 09:32N 36°10' W 005°24'0 0.0
2017-Feb-16 08:32N 36°10' W 005°24'0 0.0
2017-Feb-16 05:15N 36°10' W 005°24'0 0.0
2017-Feb-16 04:16N 36°10' W 005°24'0 0.0
2017-Feb-16 03:25N 36°10' W 005°24'0 0.0
2017-Feb-16 02:15N 36°10' W 005°24'0 0.0
2017-Feb-16 01:15N 36°10' W 005°24'0 0.0
2017-Feb-16 00:27N 36°10' W 005°24'0 0.0
2017-Feb-15 23:21N 36°10' W 005°24'0 0.0
2017-Feb-15 22:24N 36°10' W 005°24'0 0.0
2017-Feb-15 20:05N 36°10' W 005°24'0 0.0
2017-Feb-15 19:13N 36°10' W 005°24'0 0.0
2017-Feb-15 18:28N 36°10' W 005°24'0 0.0
2017-Feb-15 17:31N 36°10' W 005°24'0 0.0
2017-Feb-15 16:33N 36°10' W 005°24'0 0.0
2017-Feb-15 15:33N 36°10' W 005°24'0 0.0
2017-Feb-15 14:32N 36°10' W 005°24'0 0.0
2017-Feb-15 13:32N 36°10' W 005°24'0 0.0
2017-Feb-15 12:31N 36°10' W 005°24'0 0.0
2017-Feb-15 11:31N 36°10' W 005°24'0 0.0
2017-Feb-15 10:33N 36°10' W 005°24'0 0.0
2017-Feb-15 09:33N 36°10' W 005°24'0 0.0
2017-Feb-15 08:33N 36°10' W 005°24'0 0.0
2017-Feb-15 07:31N 36°10' W 005°24'0 0.0
2017-Feb-15 06:30N 36°10' W 005°24'0 0.0
2017-Feb-15 05:33N 36°10' W 005°24'0 0.0
2017-Feb-15 04:32N 36°10' W 005°24'0 0.1
2017-Feb-15 03:31N 36°10' W 005°24'0 0.0
2017-Feb-15 02:28N 36°10' W 005°24'0 0.1
2017-Feb-15 01:31N 36°10' W 005°24'0 0.0
2017-Feb-15 00:33N 36°10' W 005°24'0 0.0
2017-Feb-14 23:33N 36°10' W 005°24'0 0.0
2017-Feb-14 22:26N 36°10' W 005°24'0 0.0
2017-Feb-14 21:32N 36°10' W 005°24'5 5.6
2017-Feb-14 20:34N 36°05' W 005°23'1211.8
2017-Feb-14 19:33N 35°54' W 005°18'0 0.0
2017-Feb-14 18:31N 35°54' W 005°18'0 0.0
2017-Feb-14 17:31N 35°54' W 005°18'0 0.1
2017-Feb-14 16:33N 35°54' W 005°18'3 3.2
2017-Feb-14 15:33N 35°55' W 005°15'8 6.1
2017-Feb-14 14:15N 35°54' W 005°05'0 0.4
2017-Feb-14 13:33N 35°54' W 005°05'0 0.2
2017-Feb-14 11:33N 35°54' W 005°05'2 1.0
2017-Feb-14 09:31N 35°55' W 005°07'2 1.3
2017-Feb-14 08:16N 35°56' W 005°08'1 1.1
2017-Feb-14 07:33N 35°57' W 005°09'5 4.7
2017-Feb-14 06:24N 36°01' W 005°04'  
Track history (hours):
 
Tides and Currents Weather Stations Pressure Air Temp Water Temp Dewpoint Dewpoint Depression Visibility Wind Speed Wind Dir Waves Ship Positions

Bf Esperanza

Last reported at 2017-Feb-23 18:32 UTC. Time now 2017-Feb-23 18:54 UTC.
Position N 53°36' E 008°31'.

Length 135 m; draft 7.1 m.

Type: Cargo ship. MMSI: 304907000.

Date/timePositionNaut miles runAvg speedWind from/ knotsBaromVisibWave heightAir tempDewpointWater temp
2017-Feb-23 18:32N 53°36' E 008°31'0 0.0
2017-Feb-23 17:31N 53°36' E 008°31'0 0.0
2017-Feb-23 16:31N 53°36' E 008°31'0 0.0
2017-Feb-23 15:33N 53°36' E 008°31'0 0.0
2017-Feb-23 14:33N 53°36' E 008°31'6 5.8
2017-Feb-23 13:33N 53°40' E 008°23'1212.4
2017-Feb-23 12:33N 53°48' E 008°08'1413.8
2017-Feb-23 11:33N 53°53' E 007°46'95 8.5
2017-Feb-23 00:25N 53°59' E 005°05'42 8.0
2017-Feb-22 19:05N 53°19' E 004°39'5 7.9
2017-Feb-22 18:24N 53°14' E 004°35'7 8.3
2017-Feb-22 17:33N 53°08' E 004°29'9 8.8
2017-Feb-22 16:33N 53°00' E 004°23'9 9.2
2017-Feb-22 15:34N 52°52' E 004°16'10 9.6
2017-Feb-22 14:34N 52°44' E 004°07'10 9.8
2017-Feb-22 13:34N 52°38' E 003°55'8310.2
2017-Feb-22 05:22N 51°36' E 002°24'7 8.4
2017-Feb-22 04:33N 51°31' E 002°17'9 8.9
2017-Feb-22 03:33N 51°24' E 002°08'8 8.4
2017-Feb-22 02:33N 51°15' E 002°06'9 9.4
2017-Feb-22 01:33N 51°10' E 001°54'10 9.8
2017-Feb-22 00:33N 51°04' E 001°42'1010.1
2017-Feb-21 23:33N 50°56' E 001°31'68 9.4
2017-Feb-21 16:21N 50°18' E 000°03'910.8
2017-Feb-21 15:33N 50°16' W 000°10'2310.5
2017-Feb-21 13:23N 50°10' W 000°44'12 9.6
2017-Feb-21 12:07N 50°07' W 001°03'5 9.0
2017-Feb-21 11:33N 50°06' W 001°10'9 8.7
2017-Feb-21 10:33N 50°04' W 001°24'8 8.3
2017-Feb-21 09:33N 50°02' W 001°36'8 8.5
2017-Feb-21 08:34N 49°59' W 001°49'13810.2
2017-Feb-20 19:03N 48°59' W 004°60'5 9.4
2017-Feb-20 18:33N 48°57' W 005°06'9 9.4
2017-Feb-20 17:33N 48°52' W 005°18'1010.0
2017-Feb-20 16:33N 48°47' W 005°32'59413.5
2017-Feb-18 20:28N 39°23' W 009°50'1414.7
2017-Feb-18 19:33N 39°09' W 009°50'1514.5
2017-Feb-18 18:33N 38°55' W 009°50'1514.5
2017-Feb-18 17:33N 38°40' W 009°49'1414.3
2017-Feb-18 16:33N 38°27' W 009°44'1414.3
2017-Feb-18 15:33N 38°13' W 009°41'1414.5
2017-Feb-18 14:33N 37°58' W 009°37'1514.4
2017-Feb-18 13:30N 37°44' W 009°33'20314.3
2017-Feb-17 23:14N 35°58' W 005°55'1115.6
2017-Feb-17 22:33N 35°58' W 005°42'1515.3
2017-Feb-17 21:33N 36°01' W 005°24'1616.1
2017-Feb-17 20:33N 36°08' W 005°06'6 0.2
2017-Feb-16 19:33N 36°08' W 005°13'8 8.3
2017-Feb-16 18:34N 36°08' W 005°24'2 2.4
2017-Feb-16 17:32N 36°10' W 005°24'0 0.0
2017-Feb-16 16:32N 36°10' W 005°24'0 0.0
2017-Feb-16 15:32N 36°10' W 005°24'0 0.0
2017-Feb-16 14:28N 36°10' W 005°24'0 0.0
2017-Feb-16 13:31N 36°10' W 005°24'0 0.0
2017-Feb-16 12:33N 36°10' W 005°24'0 0.0
2017-Feb-16 11:33N 36°10' W 005°24'0 0.0
2017-Feb-16 10:32N 36°10' W 005°24'0 0.0
2017-Feb-16 09:32N 36°10' W 005°24'0 0.0
2017-Feb-16 08:32N 36°10' W 005°24'0 0.0
2017-Feb-16 05:15N 36°10' W 005°24'0 0.0
2017-Feb-16 04:16N 36°10' W 005°24'0 0.0
2017-Feb-16 03:25N 36°10' W 005°24'0 0.0
2017-Feb-16 02:15N 36°10' W 005°24'0 0.0
2017-Feb-16 01:15N 36°10' W 005°24'0 0.0
2017-Feb-16 00:27N 36°10' W 005°24'0 0.0
2017-Feb-15 23:21N 36°10' W 005°24'0 0.0
2017-Feb-15 22:24N 36°10' W 005°24'0 0.0
2017-Feb-15 20:05N 36°10' W 005°24'0 0.0
2017-Feb-15 19:13N 36°10' W 005°24'0 0.0
2017-Feb-15 18:28N 36°10' W 005°24'0 0.0
2017-Feb-15 17:31N 36°10' W 005°24'0 0.0
2017-Feb-15 16:33N 36°10' W 005°24'0 0.0
2017-Feb-15 15:33N 36°10' W 005°24'0 0.0
2017-Feb-15 14:32N 36°10' W 005°24'0 0.0
2017-Feb-15 13:32N 36°10' W 005°24'0 0.0
2017-Feb-15 12:31N 36°10' W 005°24'0 0.0
2017-Feb-15 11:31N 36°10' W 005°24'0 0.0
2017-Feb-15 10:33N 36°10' W 005°24'0 0.0
2017-Feb-15 09:33N 36°10' W 005°24'0 0.0
2017-Feb-15 08:33N 36°10' W 005°24'0 0.0
2017-Feb-15 07:31N 36°10' W 005°24'0 0.0
2017-Feb-15 06:30N 36°10' W 005°24'0 0.0
2017-Feb-15 05:33N 36°10' W 005°24'0 0.0
2017-Feb-15 04:32N 36°10' W 005°24'0 0.1
2017-Feb-15 03:31N 36°10' W 005°24'0 0.0
2017-Feb-15 02:28N 36°10' W 005°24'0 0.1
2017-Feb-15 01:31N 36°10' W 005°24'0 0.0
2017-Feb-15 00:33N 36°10' W 005°24'0 0.0
2017-Feb-14 23:33N 36°10' W 005°24'0 0.0
2017-Feb-14 22:26N 36°10' W 005°24'0 0.0
2017-Feb-14 21:32N 36°10' W 005°24'5 5.6
2017-Feb-14 20:34N 36°05' W 005°23'1211.8
2017-Feb-14 19:33N 35°54' W 005°18'0 0.0
2017-Feb-14 18:31N 35°54' W 005°18'0 0.0
2017-Feb-14 17:31N 35°54' W 005°18'0 0.1
2017-Feb-14 16:33N 35°54' W 005°18'3 3.2
2017-Feb-14 15:33N 35°55' W 005°15'8 6.1
2017-Feb-14 14:15N 35°54' W 005°05'0 0.4
2017-Feb-14 13:33N 35°54' W 005°05'0 0.2
2017-Feb-14 11:33N 35°54' W 005°05'2 1.0
2017-Feb-14 09:31N 35°55' W 005°07'2 1.3
2017-Feb-14 08:16N 35°56' W 005°08'1 1.1
2017-Feb-14 07:33N 35°57' W 005°09'5 4.7
2017-Feb-14 06:24N 36°01' W 005°04'  

Dump ship's entire track history